createdAt,value
2023-04-17T00:01:10.024Z,78.32
2023-04-17T00:03:37.957Z,78.24
2023-04-17T00:06:05.423Z,78.02
2023-04-17T00:08:33.883Z,78.88
2023-04-17T00:11:07.724Z,78.82
2023-04-17T00:13:35.390Z,79.44
2023-04-17T00:16:02.117Z,79.91
2023-04-17T00:18:28.777Z,78.85
2023-04-17T00:20:56.672Z,77.91
2023-04-17T00:23:23.452Z,75.81
2023-04-17T00:25:49.988Z,75.31
2023-04-17T00:28:19.429Z,75.34
2023-04-17T00:30:46.091Z,75.51
2023-04-17T00:33:12.694Z,76.44
2023-04-17T00:35:41.892Z,75.84
2023-04-17T00:38:09.308Z,76.87
2023-04-17T00:40:36.298Z,76.07
2023-04-17T00:43:04.564Z,74.92
2023-04-17T00:45:31.229Z,75.06
2023-04-17T00:47:58.925Z,75.27
2023-04-17T00:50:27.455Z,76.59
2023-04-17T00:52:54.551Z,76.68
2023-04-17T00:55:21.168Z,77.25
2023-04-17T00:57:50.729Z,78.47
2023-04-17T01:00:18.322Z,76.97
2023-04-17T01:02:47.895Z,78.18
2023-04-17T01:05:20.715Z,78.53
2023-04-17T01:07:47.400Z,78.10
2023-04-17T01:10:14.115Z,78.29
2023-04-17T01:12:41.412Z,79.22
2023-04-17T01:15:08.115Z,79.03
2023-04-17T01:17:34.979Z,78.93
2023-04-17T01:20:01.679Z,79.27
2023-04-17T01:22:28.407Z,77.89
2023-04-17T01:24:57.868Z,77.19
2023-04-17T01:27:28.230Z,77.78
2023-04-17T01:29:55.296Z,77.91
2023-04-17T01:32:22.027Z,77.74
2023-04-17T01:34:49.773Z,78.09
2023-04-17T01:37:16.376Z,77.39
2023-04-17T01:39:43.021Z,76.74
2023-04-17T01:42:12.771Z,77.06
2023-04-17T01:44:39.473Z,75.75
2023-04-17T01:47:08.607Z,77.25
2023-04-17T01:49:35.491Z,76.80
2023-04-17T01:52:02.089Z,78.10
2023-04-17T01:54:28.684Z,78.72
2023-04-17T01:56:55.384Z,78.86
2023-04-17T01:59:21.965Z,79.39
2023-04-17T02:01:49.587Z,79.74
2023-04-17T02:04:16.523Z,79.45
2023-04-17T02:06:43.222Z,78.42
2023-04-17T02:09:12.545Z,77.69
2023-04-17T02:11:39.308Z,78.00
2023-04-17T02:14:06.016Z,77.05
2023-04-17T02:16:32.832Z,78.36
2023-04-17T02:18:59.497Z,77.99
2023-04-17T02:21:27.385Z,77.62
2023-04-17T02:23:54.067Z,78.10
2023-04-17T02:26:20.925Z,78.76
2023-04-17T02:28:47.579Z,78.42
2023-04-17T02:31:14.989Z,78.07
2023-04-17T02:33:41.794Z,77.02
2023-04-17T02:36:12.467Z,76.23
2023-04-17T02:38:42.135Z,76.24
2023-04-17T02:41:08.717Z,76.08
2023-04-17T02:43:35.452Z,74.30
2023-04-17T02:46:02.155Z,74.03
2023-04-17T02:48:28.830Z,74.64
2023-04-17T02:50:55.830Z,75.62
2023-04-17T02:53:23.014Z,75.51
2023-04-17T02:55:55.416Z,74.97
2023-04-17T02:58:24.110Z,75.11
2023-04-17T03:00:50.845Z,74.99
2023-04-17T03:03:19.014Z,75.26
2023-04-17T03:05:45.968Z,75.61
2023-04-17T03:08:14.854Z,76.63
2023-04-17T03:10:48.973Z,75.22
2023-04-17T03:13:22.041Z,75.28
2023-04-17T03:15:48.805Z,75.75
2023-04-17T03:18:15.382Z,76.53
2023-04-17T03:20:42.048Z,76.74
2023-04-17T03:23:08.636Z,76.20
2023-04-17T03:25:35.264Z,77.33
2023-04-17T03:28:02.766Z,77.53
2023-04-17T03:30:32.296Z,76.26
2023-04-17T03:33:03.328Z,77.80
2023-04-17T03:35:31.639Z,77.59
2023-04-17T03:37:58.337Z,76.54
2023-04-17T03:40:25.093Z,76.93
2023-04-17T03:42:51.648Z,76.04
2023-04-17T03:45:20.480Z,76.14
2023-04-17T03:47:47.990Z,75.81
2023-04-17T03:50:15.551Z,75.86
2023-04-17T03:52:55.634Z,74.87
2023-04-17T03:55:26.867Z,75.10
2023-04-17T03:57:54.127Z,73.81
2023-04-17T04:00:21.415Z,73.95
2023-04-17T04:03:00.973Z,74.32
2023-04-17T04:05:34.741Z,74.37
2023-04-17T04:08:01.499Z,74.42
2023-04-17T04:10:40.415Z,75.04
2023-04-17T04:13:07.071Z,75.67
2023-04-17T04:15:34.366Z,75.57
2023-04-17T04:18:04.739Z,76.68
2023-04-17T04:20:31.626Z,77.16
2023-04-17T04:23:10.745Z,78.02
2023-04-17T04:25:41.748Z,78.72
2023-04-17T04:28:24.234Z,78.86
2023-04-17T04:30:53.645Z,78.09
2023-04-17T04:33:24.241Z,78.57
2023-04-17T04:35:51.917Z,80.22
2023-04-17T04:38:18.699Z,79.19
2023-04-17T04:40:52.559Z,77.74
2023-04-17T04:43:22.301Z,77.07
2023-04-17T04:45:53.119Z,78.14
2023-04-17T04:48:19.858Z,77.92
2023-04-17T04:50:46.531Z,77.33
2023-04-17T04:53:13.175Z,76.74
2023-04-17T04:55:45.969Z,76.64
2023-04-17T04:58:12.887Z,76.10
2023-04-17T05:00:39.859Z,76.11
2023-04-17T05:03:08.674Z,75.54
2023-04-17T05:05:38.073Z,74.11
2023-04-17T05:08:04.917Z,73.65
2023-04-17T05:10:34.336Z,72.98
2023-04-17T05:13:03.854Z,72.56
2023-04-17T05:15:30.476Z,74.56
2023-04-17T05:18:00.008Z,73.67
2023-04-17T05:20:28.581Z,72.23
2023-04-17T05:23:00.754Z,73.59
2023-04-17T05:25:27.607Z,72.63
2023-04-17T05:27:56.528Z,73.15
2023-04-17T05:30:23.551Z,73.21
2023-04-17T05:33:06.674Z,75.22
2023-04-17T05:36:02.309Z,74.53
2023-04-17T05:38:32.855Z,74.52
2023-04-17T05:40:59.550Z,72.79
2023-04-17T05:43:26.155Z,72.39
2023-04-17T05:45:54.245Z,73.93
2023-04-17T05:48:20.894Z,74.03
2023-04-17T05:50:47.672Z,72.54
2023-04-17T05:53:14.433Z,71.87
2023-04-17T05:55:57.688Z,72.07
2023-04-17T05:58:24.815Z,71.52
2023-04-17T06:00:55.658Z,70.95
2023-04-17T06:06:09.206Z,71.54
2023-04-17T06:08:36.043Z,71.52
2023-04-17T06:11:04.964Z,70.66
2023-04-17T06:13:32.194Z,70.06
2023-04-17T06:15:59.276Z,69.63
2023-04-17T06:18:25.892Z,70.02
2023-04-17T06:20:52.579Z,70.88
2023-04-17T06:23:19.869Z,71.46
2023-04-17T06:25:48.746Z,70.47
2023-04-17T06:28:15.804Z,70.89
2023-04-17T06:30:42.953Z,70.23
2023-04-17T06:33:09.626Z,69.39
2023-04-17T06:35:37.875Z,67.44
2023-04-17T06:38:21.728Z,67.65
2023-04-17T06:40:50.807Z,68.32
2023-04-17T06:43:19.406Z,66.22
2023-04-17T06:45:46.049Z,66.32
2023-04-17T06:48:16.043Z,65.82
2023-04-17T06:50:42.680Z,65.10
2023-04-17T06:53:09.307Z,66.23
2023-04-17T06:55:35.870Z,65.76
2023-04-17T06:58:02.622Z,64.94
2023-04-17T07:00:31.499Z,63.84
2023-04-17T07:02:58.203Z,64.12
2023-04-17T07:05:24.856Z,63.04
2023-04-17T07:07:56.724Z,62.68
2023-04-17T07:10:23.371Z,63.50
2023-04-17T07:12:49.883Z,62.51
2023-04-17T07:15:16.616Z,63.47
2023-04-17T07:17:45.557Z,62.80
2023-04-17T07:20:12.364Z,60.26
2023-04-17T07:22:41.098Z,61.67
2023-04-17T07:25:08.754Z,61.22
2023-04-17T07:27:35.568Z,62.14
2023-04-17T07:30:02.304Z,62.15
2023-04-17T07:32:30.095Z,61.71
2023-04-17T07:34:56.771Z,60.37
2023-04-17T07:37:23.273Z,60.60
2023-04-17T07:39:52.968Z,58.33
2023-04-17T07:42:19.517Z,60.30
2023-04-17T07:44:47.196Z,58.20
2023-04-17T07:47:13.817Z,57.35
2023-04-17T07:49:40.633Z,58.04
2023-04-17T07:52:07.191Z,56.98
2023-04-17T07:54:33.806Z,57.77
2023-04-17T07:57:03.543Z,57.15
2023-04-17T07:59:30.817Z,55.27
2023-04-17T08:01:57.786Z,55.35
2023-04-17T08:04:25.761Z,55.82
2023-04-17T08:06:52.688Z,55.85
2023-04-17T08:09:20.668Z,52.82
2023-04-17T08:11:57.858Z,51.01
2023-04-17T08:14:25.336Z,50.79
2023-04-17T08:16:54.310Z,48.29
2023-04-17T08:19:20.989Z,47.91
2023-04-17T08:21:48.038Z,45.34
2023-04-17T08:24:15.440Z,45.99
2023-04-17T08:26:43.175Z,44.83
2023-04-17T08:29:09.768Z,43.97
2023-04-17T08:31:36.990Z,41.64
2023-04-17T08:34:13.793Z,45.21
2023-04-17T08:36:41.355Z,45.46
2023-04-17T08:39:10.187Z,45.50
2023-04-17T08:41:42.538Z,46.47
2023-04-17T08:44:11.715Z,46.09
2023-04-17T08:46:38.918Z,45.88
2023-04-17T08:49:05.689Z,46.37
2023-04-17T08:51:32.776Z,45.94
2023-04-17T08:54:01.644Z,44.84
2023-04-17T08:56:28.761Z,45.05
2023-04-17T08:58:55.347Z,42.67
2023-04-17T09:01:22.026Z,42.64
2023-04-17T09:03:51.455Z,42.92
2023-04-17T09:06:18.146Z,44.53
2023-04-17T09:08:55.623Z,44.07
2023-04-17T09:11:22.647Z,44.32
2023-04-17T09:13:49.287Z,45.21
2023-04-17T09:16:16.074Z,42.27
2023-04-17T09:18:43.437Z,43.79
2023-04-17T09:21:12.783Z,44.44
2023-04-17T09:23:47.045Z,43.30
2023-04-17T09:26:14.603Z,42.96
2023-04-17T09:28:41.694Z,41.99
2023-04-17T09:31:17.452Z,41.95
2023-04-17T09:34:04.316Z,41.28
2023-04-17T09:36:32.575Z,40.74
2023-04-17T09:39:01.050Z,40.16
2023-04-17T09:41:39.333Z,40.45
2023-04-17T09:44:06.400Z,39.48
2023-04-17T09:46:33.325Z,40.96
2023-04-17T09:49:07.441Z,40.61
2023-04-17T09:51:35.262Z,38.97
2023-04-17T09:54:07.588Z,39.52
2023-04-17T09:56:35.933Z,38.95
2023-04-17T09:59:03.948Z,38.12
2023-04-17T10:01:34.294Z,37.61
2023-04-17T10:04:02.095Z,39.94
2023-04-17T10:06:31.077Z,41.93
2023-04-17T10:09:01.168Z,42.20
2023-04-17T10:11:30.222Z,40.50
2023-04-17T10:14:15.679Z,39.18
2023-04-17T10:16:49.187Z,38.56
2023-04-17T10:19:30.763Z,41.01
2023-04-17T10:22:16.214Z,38.84
2023-04-17T10:24:43.226Z,39.49
2023-04-17T10:27:24.889Z,38.60
2023-04-17T10:30:01.719Z,37.88
2023-04-17T10:32:29.244Z,37.79
2023-04-17T10:34:59.876Z,37.34
2023-04-17T10:37:45.422Z,38.92
2023-04-17T10:40:14.111Z,38.40
2023-04-17T10:42:41.002Z,37.13
2023-04-17T10:45:18.177Z,35.76
2023-04-17T10:47:45.611Z,35.13
2023-04-17T10:50:14.471Z,35.15
2023-04-17T10:52:42.106Z,32.20
2023-04-17T10:55:17.444Z,31.22
2023-04-17T10:58:01.126Z,32.04
2023-04-17T11:00:30.182Z,31.30
2023-04-17T11:02:56.961Z,28.26
2023-04-17T11:05:24.311Z,29.28
2023-04-17T11:07:53.688Z,29.09
2023-04-17T11:10:23.894Z,30.26
2023-04-17T11:12:56.714Z,28.06
2023-04-17T11:15:30.398Z,29.09
2023-04-17T11:17:57.946Z,29.19
2023-04-17T11:20:25.975Z,29.83
2023-04-17T11:22:52.847Z,26.83
2023-04-17T11:25:20.723Z,30.19
2023-04-17T11:27:50.282Z,28.01
2023-04-17T11:30:24.424Z,28.84
2023-04-17T11:32:54.302Z,28.12
2023-04-17T11:35:39.732Z,27.19
2023-04-17T11:38:22.723Z,28.71
2023-04-17T11:40:52.635Z,29.53
2023-04-17T11:43:20.120Z,28.00
2023-04-17T11:45:47.934Z,27.56
2023-04-17T11:48:15.011Z,28.51
2023-04-17T11:50:42.765Z,28.14
2023-04-17T11:53:14.512Z,28.54
2023-04-17T11:55:41.422Z,28.09
2023-04-17T11:58:08.606Z,29.47
2023-04-17T12:00:35.604Z,28.03
2023-04-17T12:03:27.259Z,26.60
2023-04-17T12:06:06.628Z,28.01
2023-04-17T12:08:47.181Z,28.80
2023-04-17T12:11:32.774Z,29.78
2023-04-17T12:13:59.950Z,28.37
2023-04-17T12:16:29.741Z,30.64
2023-04-17T12:18:56.789Z,30.59
2023-04-17T12:21:28.807Z,31.56
2023-04-17T12:23:55.551Z,30.59
2023-04-17T12:26:22.132Z,28.93
2023-04-17T12:28:48.809Z,30.08
2023-04-17T12:31:15.474Z,30.11
2023-04-17T12:33:43.132Z,29.73
2023-04-17T12:36:09.985Z,28.09
2023-04-17T12:38:36.613Z,30.44
2023-04-17T12:41:05.499Z,29.18
2023-04-17T12:43:35.427Z,29.67
2023-04-17T12:46:02.340Z,29.77
2023-04-17T12:48:30.750Z,30.40
2023-04-17T12:50:58.896Z,30.92
2023-04-17T12:53:30.642Z,32.65
2023-04-17T12:55:57.425Z,32.92
2023-04-17T12:58:23.981Z,33.40
2023-04-17T13:00:57.889Z,30.89
2023-04-17T13:03:24.692Z,29.74
2023-04-17T13:05:53.203Z,30.86
2023-04-17T13:08:19.999Z,32.34
2023-04-17T13:10:46.538Z,33.02
2023-04-17T13:15:53.756Z,33.34
2023-04-17T13:18:20.343Z,30.30
2023-04-17T13:20:49.239Z,29.03
2023-04-17T13:23:15.834Z,30.76
2023-04-17T13:25:44.856Z,30.68
2023-04-17T13:28:11.398Z,28.97
2023-04-17T13:30:38.151Z,28.83
2023-04-17T13:33:04.901Z,27.97
2023-04-17T13:35:31.716Z,26.64
2023-04-17T13:38:02.249Z,28.02
2023-04-17T13:40:29.883Z,26.58
2023-04-17T13:42:56.530Z,25.52
2023-04-17T13:45:23.321Z,27.18
2023-04-17T13:47:49.892Z,27.26
2023-04-17T13:50:16.570Z,28.81
2023-04-17T13:52:43.131Z,27.86
2023-04-17T13:55:11.997Z,28.90
2023-04-17T13:57:38.592Z,28.27
2023-04-17T14:00:06.422Z,28.84
2023-04-17T14:02:35.375Z,28.83
2023-04-17T14:05:02.429Z,27.31
2023-04-17T14:07:30.153Z,27.56
2023-04-17T14:09:56.722Z,26.43
2023-04-17T14:12:23.606Z,26.74
2023-04-17T14:14:50.374Z,28.17
2023-04-17T14:17:19.995Z,30.39
2023-04-17T14:19:46.581Z,30.81
2023-04-17T14:22:13.174Z,33.00
2023-04-17T14:24:39.764Z,35.02
2023-04-17T14:27:06.956Z,36.14
2023-04-17T14:29:33.558Z,34.81
2023-04-17T14:32:00.162Z,36.52
2023-04-17T14:34:26.856Z,34.13
2023-04-17T14:36:54.392Z,34.66
2023-04-17T14:39:21.756Z,35.42
2023-04-17T14:41:48.416Z,36.16
2023-04-17T14:44:15.134Z,38.41
2023-04-17T14:46:41.967Z,38.14
2023-04-17T14:49:09.097Z,37.92
2023-04-17T14:51:35.632Z,39.52
2023-04-17T14:54:02.370Z,39.20
2023-04-17T14:56:28.925Z,39.94
2023-04-17T14:58:58.736Z,40.56
2023-04-17T15:01:25.379Z,40.16
2023-04-17T15:03:52.231Z,41.85
2023-04-17T15:06:19.008Z,41.65
2023-04-17T15:08:46.229Z,42.27
2023-04-17T15:11:13.078Z,41.95
2023-04-17T15:13:40.596Z,41.67
2023-04-17T15:16:08.879Z,42.50
2023-04-17T15:18:36.185Z,42.53
2023-04-17T15:21:02.798Z,42.56
2023-04-17T15:23:29.951Z,43.23
2023-04-17T15:25:57.806Z,44.00
2023-04-17T15:28:24.853Z,44.15
2023-04-17T15:30:51.462Z,43.60
2023-04-17T15:33:18.078Z,43.11
2023-04-17T15:35:44.814Z,43.99
2023-04-17T15:38:11.834Z,43.69
2023-04-17T15:40:38.573Z,43.28
2023-04-17T15:43:05.229Z,44.37
2023-04-17T15:45:31.950Z,44.78
2023-04-17T15:48:01.765Z,44.65
2023-04-17T15:50:28.463Z,45.62
2023-04-17T15:52:55.104Z,47.23
2023-04-17T15:55:21.684Z,47.60
2023-04-17T15:57:48.301Z,47.85
2023-04-17T16:00:15.065Z,47.67
2023-04-17T16:02:41.687Z,48.37
2023-04-17T16:05:09.017Z,48.73
2023-04-17T16:07:36.665Z,49.18
2023-04-17T16:10:03.196Z,49.28
2023-04-17T16:12:32.860Z,50.03
2023-04-17T16:14:59.385Z,50.84
2023-04-17T16:17:26.885Z,51.36
2023-04-17T16:19:55.735Z,51.01
2023-04-17T16:22:22.310Z,51.11
2023-04-17T16:24:49.824Z,50.72
2023-04-17T16:27:16.498Z,51.27
2023-04-17T16:29:43.034Z,51.27
2023-04-17T16:32:11.967Z,51.85
2023-04-17T16:34:39.073Z,51.32
2023-04-17T16:37:05.776Z,51.26
2023-04-17T16:39:32.367Z,50.98
2023-04-17T16:41:58.955Z,51.19
2023-04-17T16:44:26.898Z,50.35
2023-04-17T16:47:12.008Z,51.85
2023-04-17T16:49:39.093Z,52.63
2023-04-17T16:52:05.829Z,53.19
2023-04-17T16:54:32.398Z,53.40
2023-04-17T16:56:58.976Z,54.36
2023-04-17T16:59:26.821Z,54.39
2023-04-17T17:01:55.677Z,54.72
2023-04-17T17:04:22.500Z,55.42
2023-04-17T17:06:49.087Z,55.78
2023-04-17T17:09:15.854Z,56.15
2023-04-17T17:11:42.492Z,55.94
2023-04-17T17:14:09.082Z,54.94
2023-04-17T17:16:38.085Z,56.19
2023-04-17T17:19:05.233Z,56.45
2023-04-17T17:21:31.804Z,57.51
2023-04-17T17:23:58.592Z,57.33
2023-04-17T17:26:25.564Z,57.17
2023-04-17T17:28:58.608Z,56.79
2023-04-17T17:31:25.247Z,55.85
2023-04-17T17:33:54.015Z,56.39
2023-04-17T17:36:23.910Z,58.16
2023-04-17T17:38:55.729Z,57.45
2023-04-17T17:41:25.552Z,57.61
2023-04-17T17:43:52.400Z,57.82
2023-04-17T17:46:21.019Z,57.80
2023-04-17T17:48:47.704Z,57.08
2023-04-17T17:51:14.372Z,57.38
2023-04-17T17:53:41.420Z,57.45
2023-04-17T17:56:08.070Z,56.88
2023-04-17T17:58:34.639Z,57.07
2023-04-17T18:01:01.289Z,57.26
2023-04-17T18:03:27.970Z,57.59
2023-04-17T18:05:54.687Z,57.32
2023-04-17T18:08:21.303Z,58.05
2023-04-17T18:10:47.922Z,58.35
2023-04-17T18:13:14.599Z,57.16
2023-04-17T18:15:41.897Z,57.04
2023-04-17T18:18:08.769Z,58.19
2023-04-17T18:20:39.553Z,58.61
2023-04-17T18:23:06.487Z,57.90
2023-04-17T18:25:35.277Z,57.91
2023-04-17T18:28:03.163Z,58.40
2023-04-17T18:30:29.769Z,58.14
2023-04-17T18:32:58.783Z,57.77
2023-04-17T18:35:25.490Z,58.34
2023-04-17T18:37:53.321Z,57.56
2023-04-17T18:40:19.833Z,57.59
2023-04-17T18:42:46.427Z,58.45
2023-04-17T18:45:15.793Z,58.83
2023-04-17T18:47:42.662Z,58.87
2023-04-17T18:50:09.381Z,58.40
2023-04-17T18:52:46.766Z,58.11
2023-04-17T18:55:13.504Z,58.08
2023-04-17T18:57:40.065Z,57.11
2023-04-17T19:00:06.993Z,57.14
2023-04-17T19:02:33.648Z,58.22
2023-04-17T19:05:00.515Z,57.98
2023-04-17T19:07:27.679Z,58.09
2023-04-17T19:09:54.229Z,57.97
2023-04-17T19:12:20.868Z,58.07
2023-04-17T19:14:47.517Z,56.67
2023-04-17T19:17:15.985Z,58.34
2023-04-17T19:19:42.536Z,57.86
2023-04-17T19:22:09.152Z,57.75
2023-04-17T19:24:35.765Z,57.87
2023-04-17T19:27:02.304Z,57.67
2023-04-17T19:29:28.890Z,58.00
2023-04-17T19:31:55.438Z,58.12
2023-04-17T19:34:22.323Z,58.68
2023-04-17T19:36:48.897Z,59.42
2023-04-17T19:39:15.765Z,59.28
2023-04-17T19:41:46.032Z,59.50
2023-04-17T19:44:14.390Z,58.98
2023-04-17T19:46:41.640Z,58.79
2023-04-17T19:49:08.291Z,59.48
2023-04-17T19:51:34.834Z,60.44
2023-04-17T19:54:01.625Z,59.67
2023-04-17T19:56:28.214Z,60.36
2023-04-17T19:58:54.871Z,60.66
2023-04-17T20:01:21.439Z,60.22
2023-04-17T20:03:48.258Z,60.80
2023-04-17T20:06:15.549Z,60.83
2023-04-17T20:08:42.139Z,60.07
2023-04-17T20:11:12.222Z,59.79
2023-04-17T20:13:39.169Z,61.10
2023-04-17T20:16:06.412Z,59.93
2023-04-17T20:18:33.880Z,61.38
2023-04-17T20:21:03.457Z,61.63
2023-04-17T20:23:30.023Z,61.20
2023-04-17T20:25:56.629Z,61.40
2023-04-17T20:28:23.383Z,62.22
2023-04-17T20:30:49.931Z,61.94
2023-04-17T20:33:16.713Z,61.04
2023-04-17T20:35:43.341Z,60.73
2023-04-17T20:38:09.938Z,61.43
2023-04-17T20:40:36.480Z,62.15
2023-04-17T20:43:03.068Z,62.82
2023-04-17T20:45:29.707Z,62.33
2023-04-17T20:47:57.265Z,62.32
2023-04-17T20:50:24.280Z,63.12
2023-04-17T20:52:50.984Z,63.62
2023-04-17T20:55:19.824Z,64.33
2023-04-17T20:57:47.677Z,63.71
2023-04-17T21:00:14.417Z,63.11
2023-04-17T21:02:41.268Z,64.16
2023-04-17T21:05:08.531Z,64.71
2023-04-17T21:07:35.619Z,64.75
2023-04-17T21:10:02.286Z,64.67
2023-04-17T21:12:29.027Z,64.19
2023-04-17T21:14:55.545Z,64.42
2023-04-17T21:17:22.221Z,64.79
2023-04-17T21:19:49.472Z,64.52
2023-04-17T21:22:16.338Z,65.10
2023-04-17T21:24:43.020Z,65.32
2023-04-17T21:27:10.461Z,65.32
2023-04-17T21:29:37.772Z,66.06
2023-04-17T21:32:05.707Z,66.78
2023-04-17T21:34:32.373Z,67.66
2023-04-17T21:37:02.601Z,66.71
2023-04-17T21:39:32.776Z,67.59
2023-04-17T21:41:59.910Z,67.58
2023-04-17T21:44:26.522Z,67.45
2023-04-17T21:46:53.180Z,67.27
2023-04-17T21:49:19.992Z,67.77
2023-04-17T21:51:46.580Z,68.21
2023-04-17T21:54:13.369Z,67.90
2023-04-17T21:56:40.209Z,68.45
2023-04-17T21:59:06.732Z,68.10
2023-04-17T22:01:33.436Z,68.16
2023-04-17T22:04:00.094Z,67.45
2023-04-17T22:06:27.489Z,67.72
2023-04-17T22:08:54.064Z,68.77
2023-04-17T22:11:21.202Z,69.53
2023-04-17T22:13:47.711Z,69.78
2023-04-17T22:16:14.428Z,70.09
2023-04-17T22:18:42.878Z,69.38
2023-04-17T22:21:12.542Z,68.85
2023-04-17T22:23:39.086Z,68.84
2023-04-17T22:26:05.793Z,68.91
2023-04-17T22:28:32.453Z,68.66
2023-04-17T22:30:59.579Z,70.27
2023-04-17T22:33:26.434Z,69.39
2023-04-17T22:35:53.572Z,69.43
2023-04-17T22:38:23.041Z,68.92
2023-04-17T22:40:49.736Z,69.31
2023-04-17T22:43:16.322Z,70.08
2023-04-17T22:45:43.356Z,71.33
2023-04-17T22:48:09.943Z,71.76
2023-04-17T22:50:37.803Z,71.75
2023-04-17T22:53:04.611Z,71.98
2023-04-17T22:55:31.355Z,71.16
2023-04-17T22:57:57.913Z,71.00
2023-04-17T23:00:25.425Z,71.26
2023-04-17T23:02:52.403Z,72.30
2023-04-17T23:05:19.225Z,71.90
2023-04-17T23:07:45.811Z,72.55
2023-04-17T23:10:12.489Z,72.35
2023-04-17T23:12:39.038Z,72.60
2023-04-17T23:15:06.106Z,72.82
2023-04-17T23:17:33.274Z,72.16
2023-04-17T23:20:00.041Z,72.85
2023-04-17T23:22:26.627Z,72.88
2023-04-17T23:24:53.271Z,73.50
2023-04-17T23:27:19.909Z,73.95
2023-04-17T23:29:46.586Z,73.68
2023-04-17T23:32:13.126Z,74.92
2023-04-17T23:34:39.793Z,74.19
2023-04-17T23:37:06.752Z,75.30
2023-04-17T23:39:34.811Z,74.44
2023-04-17T23:42:06.938Z,74.34
2023-04-17T23:44:34.690Z,74.45
2023-04-17T23:47:01.668Z,73.37
2023-04-17T23:49:28.331Z,72.53
2023-04-17T23:51:54.869Z,75.10
2023-04-17T23:54:21.553Z,74.68
2023-04-17T23:56:48.054Z,74.42
2023-04-17T23:59:14.844Z,74.69
